sensor_id;sensor_type;location;lat;lon;timestamp;pressure;altitude;pressure_sealevel;temperature;humidity
85317;BME280;75721;52.330;9.772;2024-02-28T00:02:16;101552.06;;;3.85;94.89
85317;BME280;75721;52.330;9.772;2024-02-28T00:04:41;101564.09;;;3.89;93.61
85317;BME280;75721;52.330;9.772;2024-02-28T00:07:07;101564.72;;;3.86;94.20
85317;BME280;75721;52.330;9.772;2024-02-28T00:09:32;101564.72;;;3.86;94.52
85317;BME280;75721;52.330;9.772;2024-02-28T00:11:57;101565.38;;;3.83;94.63
85317;BME280;75721;52.330;9.772;2024-02-28T00:14:23;101573.19;;;3.81;94.84
85317;BME280;75721;52.330;9.772;2024-02-28T00:16:48;101575.44;;;3.79;93.83
85317;BME280;75721;52.330;9.772;2024-02-28T00:19:13;101574.31;;;3.80;95.03
85317;BME280;75721;52.330;9.772;2024-02-28T00:21:39;101578.69;;;3.73;94.22
85317;BME280;75721;52.330;9.772;2024-02-28T00:24:06;101575.09;;;3.72;95.46
85317;BME280;75721;52.330;9.772;2024-02-28T00:26:31;101581.31;;;3.78;95.90
85317;BME280;75721;52.330;9.772;2024-02-28T00:28:57;101569.88;;;3.62;96.75
85317;BME280;75721;52.330;9.772;2024-02-28T00:31:22;101571.00;;;3.61;96.38
85317;BME280;75721;52.330;9.772;2024-02-28T00:33:47;101577.41;;;3.70;95.58
85317;BME280;75721;52.330;9.772;2024-02-28T00:36:13;101569.53;;;3.55;94.87
85317;BME280;75721;52.330;9.772;2024-02-28T00:38:39;101560.13;;;3.56;96.77
85317;BME280;75721;52.330;9.772;2024-02-28T00:41:04;101563.34;;;3.50;95.95
85317;BME280;75721;52.330;9.772;2024-02-28T00:43:29;101567.22;;;3.40;96.60
85317;BME280;75721;52.330;9.772;2024-02-28T00:45:54;101567.94;;;3.24;96.87
85317;BME280;75721;52.330;9.772;2024-02-28T00:48:21;101570.72;;;3.24;97.14
85317;BME280;75721;52.330;9.772;2024-02-28T00:50:47;101571.94;;;3.09;96.11
85317;BME280;75721;52.330;9.772;2024-02-28T00:53:12;101585.00;;;2.95;97.50
85317;BME280;75721;52.330;9.772;2024-02-28T00:55:37;101580.16;;;2.92;98.33
85317;BME280;75721;52.330;9.772;2024-02-28T00:58:03;101572.50;;;2.89;98.65
85317;BME280;75721;52.330;9.772;2024-02-28T01:00:28;101578.97;;;2.84;98.54
85317;BME280;75721;52.330;9.772;2024-02-28T01:02:53;101579.16;;;2.66;98.40
85317;BME280;75721;52.330;9.772;2024-02-28T01:05:18;101586.94;;;2.64;99.25
85317;BME280;75721;52.330;9.772;2024-02-28T01:07:44;101594.34;;;2.55;100.00
85317;BME280;75721;52.330;9.772;2024-02-28T01:10:09;101588.81;;;2.55;99.84
85317;BME280;75721;52.330;9.772;2024-02-28T01:12:35;101582.44;;;2.46;99.96
85317;BME280;75721;52.330;9.772;2024-02-28T01:15:00;101590.31;;;2.39;99.50
85317;BME280;75721;52.330;9.772;2024-02-28T01:17:25;101588.09;;;2.27;100.00
85317;BME280;75721;52.330;9.772;2024-02-28T01:19:50;101587.91;;;2.24;99.93
85317;BME280;75721;52.330;9.772;2024-02-28T01:22:16;101594.47;;;2.14;99.68
85317;BME280;75721;52.330;9.772;2024-02-28T01:24:41;101589.41;;;2.08;100.00
85317;BME280;75721;52.330;9.772;2024-02-28T01:27:06;101587.94;;;2.10;100.00
85317;BME280;75721;52.330;9.772;2024-02-28T01:29:32;101596.75;;;1.99;100.00
85317;BME280;75721;52.330;9.772;2024-02-28T01:31:57;101591.19;;;1.77;100.00
85317;BME280;75721;52.330;9.772;2024-02-28T01:34:23;101594.22;;;1.89;100.00
85317;BME280;75721;52.330;9.772;2024-02-28T01:36:48;101580.03;;;1.82;100.00
85317;BME280;75721;52.330;9.772;2024-02-28T01:39:13;101582.00;;;1.68;100.00
85317;BME280;75721;52.330;9.772;2024-02-28T01:41:39;101586.38;;;1.55;100.00
85317;BME280;75721;52.330;9.772;2024-02-28T01:44:04;101578.84;;;1.47;100.00
85317;BME280;75721;52.330;9.772;2024-02-28T01:46:29;101593.53;;;1.43;100.00
85317;BME280;75721;52.330;9.772;2024-02-28T01:48:56;101587.00;;;1.39;100.00
85317;BME280;75721;52.330;9.772;2024-02-28T01:51:24;101586.00;;;1.35;100.00
85317;BME280;75721;52.330;9.772;2024-02-28T01:53:51;101583.13;;;1.26;100.00
85317;BME280;75721;52.330;9.772;2024-02-28T01:56:18;101584.66;;;1.19;100.00
85317;BME280;75721;52.330;9.772;2024-02-28T01:58:46;101584.03;;;1.22;100.00
85317;BME280;75721;52.330;9.772;2024-02-28T02:01:13;101583.00;;;1.18;100.00
85317;BME280;75721;52.330;9.772;2024-02-28T02:03:43;101583.19;;;1.08;100.00
85317;BME280;75721;52.330;9.772;2024-02-28T02:06:08;101586.16;;;0.98;100.00
85317;BME280;75721;52.330;9.772;2024-02-28T02:08:34;101580.66;;;0.98;100.00
85317;BME280;75721;52.330;9.772;2024-02-28T02:10:59;101576.78;;;0.99;100.00
85317;BME280;75721;52.330;9.772;2024-02-28T02:13:25;101566.38;;;0.96;100.00
85317;BME280;75721;52.330;9.772;2024-02-28T02:15:50;101573.31;;;0.93;100.00
85317;BME280;75721;52.330;9.772;2024-02-28T02:18:15;101569.91;;;0.83;100.00
85317;BME280;75721;52.330;9.772;2024-02-28T02:20:43;101575.69;;;0.68;100.00
85317;BME280;75721;52.330;9.772;2024-02-28T02:23:10;101571.81;;;0.69;100.00
85317;BME280;75721;52.330;9.772;2024-02-28T02:25:44;101577.28;;;0.55;100.00
85317;BME280;75721;52.330;9.772;2024-02-28T02:28:09;101584.94;;;0.40;100.00
85317;BME280;75721;52.330;9.772;2024-02-28T02:30:34;101587.63;;;0.45;100.00
85317;BME280;75721;52.330;9.772;2024-02-28T02:32:59;101584.50;;;0.33;100.00
85317;BME280;75721;52.330;9.772;2024-02-28T02:35:25;101578.84;;;0.43;100.00
85317;BME280;75721;52.330;9.772;2024-02-28T02:37:50;101581.50;;;0.48;100.00
85317;BME280;75721;52.330;9.772;2024-02-28T02:40:15;101583.91;;;0.36;100.00
85317;BME280;75721;52.330;9.772;2024-02-28T02:42:41;101577.00;;;0.38;100.00
85317;BME280;75721;52.330;9.772;2024-02-28T02:45:06;101570.31;;;0.44;100.00
85317;BME280;75721;52.330;9.772;2024-02-28T02:47:31;101561.75;;;0.46;100.00
85317;BME280;75721;52.330;9.772;2024-02-28T02:49:56;101568.69;;;0.43;100.00
85317;BME280;75721;52.330;9.772;2024-02-28T02:52:22;101573.06;;;0.26;100.00
85317;BME280;75721;52.330;9.772;2024-02-28T02:54:47;101579.47;;;0.21;100.00
85317;BME280;75721;52.330;9.772;2024-02-28T02:57:12;101583.44;;;0.15;100.00
85317;BME280;75721;52.330;9.772;2024-02-28T02:59:38;101575.03;;;0.07;100.00
85317;BME280;75721;52.330;9.772;2024-02-28T03:02:03;101572.72;;;0.14;100.00
85317;BME280;75721;52.330;9.772;2024-02-28T03:04:29;101566.53;;;0.22;100.00
85317;BME280;75721;52.330;9.772;2024-02-28T03:06:54;101559.88;;;0.28;100.00
85317;BME280;75721;52.330;9.772;2024-02-28T03:09:19;101568.78;;;0.20;100.00
85317;BME280;75721;52.330;9.772;2024-02-28T03:11:44;101578.28;;;0.08;100.00
85317;BME280;75721;52.330;9.772;2024-02-28T03:14:10;101575.41;;;0.00;100.00
85317;BME280;75721;52.330;9.772;2024-02-28T03:16:35;101573.47;;;0.00;100.00
85317;BME280;75721;52.330;9.772;2024-02-28T03:19:02;101576.22;;;0.00;100.00
85317;BME280;75721;52.330;9.772;2024-02-28T03:21:28;101587.03;;;-0.08;100.00
85317;BME280;75721;52.330;9.772;2024-02-28T03:23:53;101586.75;;;-0.07;100.00
85317;BME280;75721;52.330;9.772;2024-02-28T03:26:18;101594.78;;;-0.10;100.00
85317;BME280;75721;52.330;9.772;2024-02-28T03:28:43;101587.88;;;-0.08;100.00
85317;BME280;75721;52.330;9.772;2024-02-28T03:31:09;101595.53;;;-0.05;100.00
85317;BME280;75721;52.330;9.772;2024-02-28T03:33:34;101597.75;;;-0.07;100.00
85317;BME280;75721;52.330;9.772;2024-02-28T03:36:00;101595.66;;;-0.15;100.00
85317;BME280;75721;52.330;9.772;2024-02-28T03:38:25;101607.69;;;-0.11;100.00
85317;BME280;75721;52.330;9.772;2024-02-28T03:40:51;101607.25;;;-0.18;100.00
85317;BME280;75721;52.330;9.772;2024-02-28T03:43:16;101606.13;;;-0.17;100.00
85317;BME280;75721;52.330;9.772;2024-02-28T03:45:41;101610.97;;;-0.09;100.00
85317;BME280;75721;52.330;9.772;2024-02-28T03:48:07;101615.41;;;-0.13;100.00
85317;BME280;75721;52.330;9.772;2024-02-28T03:50:32;101608.88;;;-0.17;100.00
85317;BME280;75721;52.330;9.772;2024-02-28T03:52:58;101614.81;;;-0.10;100.00
85317;BME280;75721;52.330;9.772;2024-02-28T03:55:23;101621.97;;;-0.09;100.00
85317;BME280;75721;52.330;9.772;2024-02-28T03:57:48;101624.41;;;-0.07;100.00
85317;BME280;75721;52.330;9.772;2024-02-28T04:00:16;101616.63;;;0.00;100.00
85317;BME280;75721;52.330;9.772;2024-02-28T04:02:42;101628.66;;;0.04;100.00
85317;BME280;75721;52.330;9.772;2024-02-28T04:05:07;101616.75;;;0.08;100.00
85317;BME280;75721;52.330;9.772;2024-02-28T04:07:33;101627.84;;;0.03;100.00
85317;BME280;75721;52.330;9.772;2024-02-28T04:09:58;101634.22;;;-0.01;100.00
85317;BME280;75721;52.330;9.772;2024-02-28T04:12:24;101638.44;;;-0.09;100.00
85317;BME280;75721;52.330;9.772;2024-02-28T04:14:49;101629.00;;;-0.03;100.00
85317;BME280;75721;52.330;9.772;2024-02-28T04:17:14;101629.91;;;-0.07;100.00
85317;BME280;75721;52.330;9.772;2024-02-28T04:19:39;101629.09;;;-0.08;100.00
85317;BME280;75721;52.330;9.772;2024-02-28T04:22:05;101625.72;;;-0.23;100.00
85317;BME280;75721;52.330;9.772;2024-02-28T04:24:30;101636.34;;;-0.17;100.00
85317;BME280;75721;52.330;9.772;2024-02-28T04:26:55;101636.88;;;-0.15;100.00
85317;BME280;75721;52.330;9.772;2024-02-28T04:29:23;101628.69;;;-0.20;100.00
85317;BME280;75721;52.330;9.772;2024-02-28T04:31:49;101632.78;;;-0.17;100.00
85317;BME280;75721;52.330;9.772;2024-02-28T04:34:14;101634.13;;;-0.15;100.00
85317;BME280;75721;52.330;9.772;2024-02-28T04:36:39;101631.00;;;-0.08;100.00
85317;BME280;75721;52.330;9.772;2024-02-28T04:39:04;101630.13;;;-0.04;100.00
85317;BME280;75721;52.330;9.772;2024-02-28T04:41:32;101632.59;;;-0.02;100.00
85317;BME280;75721;52.330;9.772;2024-02-28T04:43:58;101629.75;;;-0.16;100.00
85317;BME280;75721;52.330;9.772;2024-02-28T04:46:23;101639.00;;;-0.30;100.00
85317;BME280;75721;52.330;9.772;2024-02-28T04:48:48;101648.19;;;-0.40;100.00
85317;BME280;75721;52.330;9.772;2024-02-28T04:51:16;101652.47;;;-0.57;100.00
85317;BME280;75721;52.330;9.772;2024-02-28T04:53:45;101649.34;;;-0.46;100.00
85317;BME280;75721;52.330;9.772;2024-02-28T04:56:10;101660.84;;;-0.44;100.00
85317;BME280;75721;52.330;9.772;2024-02-28T04:58:38;101660.31;;;-0.46;100.00
85317;BME280;75721;52.330;9.772;2024-02-28T05:01:04;101660.31;;;-0.46;100.00
85317;BME280;75721;52.330;9.772;2024-02-28T05:03:29;101667.50;;;-0.50;100.00
85317;BME280;75721;52.330;9.772;2024-02-28T05:05:54;101666.09;;;-0.47;100.00
85317;BME280;75721;52.330;9.772;2024-02-28T05:08:20;101669.97;;;-0.48;100.00
85317;BME280;75721;52.330;9.772;2024-02-28T05:10:46;101676.28;;;-0.48;100.00
85317;BME280;75721;52.330;9.772;2024-02-28T05:13:11;101683.13;;;-0.45;100.00
85317;BME280;75721;52.330;9.772;2024-02-28T05:15:37;101684.03;;;-0.55;100.00
85317;BME280;75721;52.330;9.772;2024-02-28T05:18:03;101690.34;;;-0.54;100.00
85317;BME280;75721;52.330;9.772;2024-02-28T05:20:28;101689.19;;;-0.48;100.00
85317;BME280;75721;52.330;9.772;2024-02-28T05:22:53;101683.91;;;-0.45;100.00
85317;BME280;75721;52.330;9.772;2024-02-28T05:25:18;101682.75;;;-0.39;100.00
85317;BME280;75721;52.330;9.772;2024-02-28T05:27:44;101693.03;;;-0.49;100.00
85317;BME280;75721;52.330;9.772;2024-02-28T05:30:10;101699.31;;;-0.44;100.00
85317;BME280;75721;52.330;9.772;2024-02-28T05:32:35;101700.63;;;-0.41;100.00
85317;BME280;75721;52.330;9.772;2024-02-28T05:35:00;101696.28;;;-0.19;100.00
85317;BME280;75721;52.330;9.772;2024-02-28T05:37:26;101696.78;;;-0.17;100.00
85317;BME280;75721;52.330;9.772;2024-02-28T05:39:51;101695.44;;;-0.19;100.00
85317;BME280;75721;52.330;9.772;2024-02-28T05:42:17;101714.44;;;-0.23;100.00
85317;BME280;75721;52.330;9.772;2024-02-28T05:44:47;101716.59;;;-0.20;100.00
85317;BME280;75721;52.330;9.772;2024-02-28T05:47:13;101714.91;;;-0.16;100.00
85317;BME280;75721;52.330;9.772;2024-02-28T05:49:38;101709.28;;;-0.06;100.00
85317;BME280;75721;52.330;9.772;2024-02-28T05:52:04;101716.31;;;0.06;100.00
85317;BME280;75721;52.330;9.772;2024-02-28T05:54:30;101721.28;;;0.03;100.00
85317;BME280;75721;52.330;9.772;2024-02-28T05:56:56;101720.84;;;0.15;100.00
85317;BME280;75721;52.330;9.772;2024-02-28T05:59:21;101723.47;;;0.25;100.00
85317;BME280;75721;52.330;9.772;2024-02-28T06:01:46;101728.53;;;0.37;100.00
85317;BME280;75721;52.330;9.772;2024-02-28T06:04:12;101732.59;;;0.21;100.00
85317;BME280;75721;52.330;9.772;2024-02-28T06:06:38;101737.44;;;0.29;100.00
85317;BME280;75721;52.330;9.772;2024-02-28T06:09:03;101735.97;;;0.55;100.00
85317;BME280;75721;52.330;9.772;2024-02-28T06:11:29;101738.19;;;0.34;100.00
85317;BME280;75721;52.330;9.772;2024-02-28T06:13:54;101721.47;;;0.49;100.00
85317;BME280;75721;52.330;9.772;2024-02-28T06:16:19;101724.38;;;0.58;100.00
85317;BME280;75721;52.330;9.772;2024-02-28T06:18:44;101721.56;;;0.63;100.00
85317;BME280;75721;52.330;9.772;2024-02-28T06:21:10;101723.72;;;0.47;100.00
85317;BME280;75721;52.330;9.772;2024-02-28T06:23:35;101723.88;;;0.56;100.00
85317;BME280;75721;52.330;9.772;2024-02-28T06:26:00;101732.72;;;0.53;100.00
85317;BME280;75721;52.330;9.772;2024-02-28T06:28:26;101727.66;;;0.60;100.00
85317;BME280;75721;52.330;9.772;2024-02-28T06:30:51;101742.53;;;0.59;100.00
85317;BME280;75721;52.330;9.772;2024-02-28T06:33:17;101731.53;;;0.59;100.00
85317;BME280;75721;52.330;9.772;2024-02-28T06:35:42;101735.53;;;0.66;100.00
85317;BME280;75721;52.330;9.772;2024-02-28T06:38:07;101740.16;;;0.71;100.00
85317;BME280;75721;52.330;9.772;2024-02-28T06:40:33;101737.19;;;0.49;100.00
85317;BME280;75721;52.330;9.772;2024-02-28T06:43:00;101738.28;;;0.66;100.00
85317;BME280;75721;52.330;9.772;2024-02-28T06:45:25;101740.53;;;0.64;100.00
85317;BME280;75721;52.330;9.772;2024-02-28T06:47:51;101742.16;;;0.65;100.00
85317;BME280;75721;52.330;9.772;2024-02-28T06:50:16;101743.88;;;0.80;100.00
85317;BME280;75721;52.330;9.772;2024-02-28T06:52:42;101748.16;;;0.86;100.00
85317;BME280;75721;52.330;9.772;2024-02-28T06:55:08;101750.69;;;1.01;100.00
85317;BME280;75721;52.330;9.772;2024-02-28T06:57:41;101749.06;;;1.00;100.00
85317;BME280;75721;52.330;9.772;2024-02-28T07:00:10;101743.94;;;0.93;100.00
85317;BME280;75721;52.330;9.772;2024-02-28T07:02:37;101747.38;;;0.85;100.00
85317;BME280;75721;52.330;9.772;2024-02-28T07:05:03;101750.09;;;1.04;100.00
85317;BME280;75721;52.330;9.772;2024-02-28T07:07:32;101743.56;;;1.00;100.00
85317;BME280;75721;52.330;9.772;2024-02-28T07:09:58;101760.16;;;1.13;100.00
85317;BME280;75721;52.330;9.772;2024-02-28T07:12:23;101745.03;;;1.11;100.00
85317;BME280;75721;52.330;9.772;2024-02-28T07:14:50;101755.16;;;1.15;100.00
85317;BME280;75721;52.330;9.772;2024-02-28T07:17:15;101752.63;;;1.19;100.00
85317;BME280;75721;52.330;9.772;2024-02-28T07:19:40;101762.66;;;1.28;100.00
85317;BME280;75721;52.330;9.772;2024-02-28T07:22:05;101766.00;;;1.25;100.00
85317;BME280;75721;52.330;9.772;2024-02-28T07:24:31;101768.72;;;1.44;100.00
85317;BME280;75721;52.330;9.772;2024-02-28T07:26:56;101767.59;;;1.45;100.00
85317;BME280;75721;52.330;9.772;2024-02-28T07:29:22;101776.25;;;1.38;100.00
85317;BME280;75721;52.330;9.772;2024-02-28T07:31:49;101780.19;;;1.32;100.00
85317;BME280;75721;52.330;9.772;2024-02-28T07:34:15;101774.22;;;1.44;100.00
85317;BME280;75721;52.330;9.772;2024-02-28T07:36:40;101772.88;;;1.41;100.00
85317;BME280;75721;52.330;9.772;2024-02-28T07:39:05;101768.22;;;1.55;100.00
85317;BME280;75721;52.330;9.772;2024-02-28T07:41:31;101775.09;;;1.58;100.00
85317;BME280;75721;52.330;9.772;2024-02-28T07:43:57;101773.59;;;1.47;100.00
85317;BME280;75721;52.330;9.772;2024-02-28T07:46:22;101775.31;;;1.43;100.00
85317;BME280;75721;52.330;9.772;2024-02-28T07:48:48;101780.72;;;1.66;100.00
85317;BME280;75721;52.330;9.772;2024-02-28T07:51:13;101776.47;;;1.55;100.00
85317;BME280;75721;52.330;9.772;2024-02-28T07:53:38;101792.41;;;1.58;100.00
85317;BME280;75721;52.330;9.772;2024-02-28T07:56:05;101790.63;;;1.67;100.00
85317;BME280;75721;52.330;9.772;2024-02-28T07:58:32;101782.53;;;1.71;100.00
85317;BME280;75721;52.330;9.772;2024-02-28T08:00:58;101785.94;;;1.81;100.00
85317;BME280;75721;52.330;9.772;2024-02-28T08:03:23;101784.41;;;1.75;100.00
85317;BME280;75721;52.330;9.772;2024-02-28T08:05:49;101786.13;;;1.71;100.00
85317;BME280;75721;52.330;9.772;2024-02-28T08:08:14;101788.66;;;1.68;100.00
85317;BME280;75721;52.330;9.772;2024-02-28T08:10:40;101789.00;;;1.80;100.00
85317;BME280;75721;52.330;9.772;2024-02-28T08:13:05;101791.59;;;1.90;100.00
85317;BME280;75721;52.330;9.772;2024-02-28T08:15:31;101801.78;;;2.03;100.00
85317;BME280;75721;52.330;9.772;2024-02-28T08:17:57;101797.16;;;1.85;100.00
85317;BME280;75721;52.330;9.772;2024-02-28T08:20:23;101790.34;;;1.96;100.00
85317;BME280;75721;52.330;9.772;2024-02-28T08:22:48;101794.03;;;2.05;100.00
85317;BME280;75721;52.330;9.772;2024-02-28T08:25:14;101799.78;;;2.22;100.00
85317;BME280;75721;52.330;9.772;2024-02-28T08:27:40;101799.75;;;2.08;100.00
85317;BME280;75721;52.330;9.772;2024-02-28T08:30:05;101800.38;;;2.19;100.00
85317;BME280;75721;52.330;9.772;2024-02-28T08:32:32;101797.72;;;2.41;100.00
85317;BME280;75721;52.330;9.772;2024-02-28T08:34:57;101805.28;;;2.35;100.00
85317;BME280;75721;52.330;9.772;2024-02-28T08:37:23;101803.31;;;2.63;100.00
85317;BME280;75721;52.330;9.772;2024-02-28T08:39:48;101803.72;;;2.70;100.00
85317;BME280;75721;52.330;9.772;2024-02-28T08:42:14;101807.13;;;3.02;100.00
85317;BME280;75721;52.330;9.772;2024-02-28T08:44:39;101799.47;;;2.99;100.00
85317;BME280;75721;52.330;9.772;2024-02-28T08:47:05;101794.84;;;3.08;100.00
85317;BME280;75721;52.330;9.772;2024-02-28T08:49:36;101792.50;;;3.02;100.00
85317;BME280;75721;52.330;9.772;2024-02-28T08:52:02;101795.69;;;2.95;100.00
85317;BME280;75721;52.330;9.772;2024-02-28T08:54:28;101796.78;;;3.08;100.00
85317;BME280;75721;52.330;9.772;2024-02-28T08:56:53;101794.31;;;3.42;100.00
85317;BME280;75721;52.330;9.772;2024-02-28T08:59:18;101793.03;;;3.26;100.00
85317;BME280;75721;52.330;9.772;2024-02-28T09:01:44;101805.22;;;3.69;98.91
85317;BME280;75721;52.330;9.772;2024-02-28T09:04:09;101799.25;;;4.06;96.50
85317;BME280;75721;52.330;9.772;2024-02-28T09:06:34;101791.28;;;4.44;96.19
85317;BME280;75721;52.330;9.772;2024-02-28T09:09:03;101800.69;;;4.34;92.87
85317;BME280;75721;52.330;9.772;2024-02-28T09:11:29;101800.41;;;4.05;96.73
85317;BME280;75721;52.330;9.772;2024-02-28T09:13:54;101802.69;;;4.51;94.15
85317;BME280;75721;52.330;9.772;2024-02-28T09:16:20;101794.16;;;5.20;92.04
85317;BME280;75721;52.330;9.772;2024-02-28T09:18:45;101796.44;;;4.37;93.95
85317;BME280;75721;52.330;9.772;2024-02-28T09:21:10;101796.44;;;4.37;93.60
85317;BME280;75721;52.330;9.772;2024-02-28T09:23:36;101790.59;;;5.03;93.04
85317;BME280;75721;52.330;9.772;2024-02-28T09:26:04;101803.13;;;5.17;91.30
85317;BME280;75721;52.330;9.772;2024-02-28T09:28:31;101787.25;;;5.86;89.43
85317;BME280;75721;52.330;9.772;2024-02-28T09:30:56;101789.94;;;5.06;90.43
85317;BME280;75721;52.330;9.772;2024-02-28T09:33:22;101793.97;;;5.51;91.64
85317;BME280;75721;52.330;9.772;2024-02-28T09:35:48;101792.69;;;5.57;91.48
85317;BME280;75721;52.330;9.772;2024-02-28T09:38:13;101792.34;;;5.67;89.39
85317;BME280;75721;52.330;9.772;2024-02-28T09:40:39;101793.94;;;5.76;88.68
85317;BME280;75721;52.330;9.772;2024-02-28T09:43:04;101801.13;;;5.69;91.05
85317;BME280;75721;52.330;9.772;2024-02-28T09:45:30;101802.81;;;5.44;91.15
85317;BME280;75721;52.330;9.772;2024-02-28T09:48:00;101806.53;;;5.14;91.45
85317;BME280;75721;52.330;9.772;2024-02-28T09:50:26;101811.56;;;4.87;92.41
85317;BME280;75721;52.330;9.772;2024-02-28T09:52:53;101812.22;;;5.69;91.11
85317;BME280;75721;52.330;9.772;2024-02-28T09:55:19;101809.31;;;5.48;89.16
85317;BME280;75721;52.330;9.772;2024-02-28T09:57:47;101813.72;;;5.41;90.59
85317;BME280;75721;52.330;9.772;2024-02-28T10:00:14;101826.59;;;5.37;89.77
85317;BME280;75721;52.330;9.772;2024-02-28T10:02:42;101816.00;;;5.81;89.92
85317;BME280;75721;52.330;9.772;2024-02-28T10:05:09;101815.50;;;5.62;89.97
85317;BME280;75721;52.330;9.772;2024-02-28T10:07:35;101815.94;;;6.07;90.02
85317;BME280;75721;52.330;9.772;2024-02-28T10:10:01;101815.34;;;6.31;87.25
85317;BME280;75721;52.330;9.772;2024-02-28T10:12:26;101809.94;;;6.72;87.27
85317;BME280;75721;52.330;9.772;2024-02-28T10:14:51;101817.63;;;6.75;86.52
85317;BME280;75721;52.330;9.772;2024-02-28T10:17:16;101804.50;;;7.25;85.14
85317;BME280;75721;52.330;9.772;2024-02-28T10:19:42;101816.44;;;6.47;87.15
85317;BME280;75721;52.330;9.772;2024-02-28T10:22:07;101819.22;;;6.47;87.19
85317;BME280;75721;52.330;9.772;2024-02-28T10:24:35;101828.44;;;6.30;87.64
85317;BME280;75721;52.330;9.772;2024-02-28T10:27:03;101838.16;;;5.90;87.90
85317;BME280;75721;52.330;9.772;2024-02-28T10:29:29;101835.88;;;6.00;88.52
85317;BME280;75721;52.330;9.772;2024-02-28T10:31:58;101838.16;;;5.98;87.68
85317;BME280;75721;52.330;9.772;2024-02-28T10:34:23;101838.28;;;6.19;87.80
85317;BME280;75721;52.330;9.772;2024-02-28T10:36:49;101836.78;;;6.30;86.16
85317;BME280;75721;52.330;9.772;2024-02-28T10:39:15;101846.31;;;6.58;89.37
85317;BME280;75721;52.330;9.772;2024-02-28T10:41:42;101843.91;;;6.40;86.93
85317;BME280;75721;52.330;9.772;2024-02-28T10:44:09;101844.63;;;6.66;88.49
85317;BME280;75721;52.330;9.772;2024-02-28T10:46:37;101847.06;;;6.30;87.62
85317;BME280;75721;52.330;9.772;2024-02-28T10:49:04;101854.94;;;6.19;87.64
85317;BME280;75721;52.330;9.772;2024-02-28T10:51:30;101858.41;;;5.73;87.99
85317;BME280;75721;52.330;9.772;2024-02-28T10:54:07;101841.75;;;6.07;89.63
85317;BME280;75721;52.330;9.772;2024-02-28T10:56:53;101837.28;;;6.24;88.21
85317;BME280;75721;52.330;9.772;2024-02-28T10:59:21;101836.81;;;6.13;88.52
85317;BME280;75721;52.330;9.772;2024-02-28T11:01:48;101837.00;;;6.08;88.82
85317;BME280;75721;52.330;9.772;2024-02-28T11:04:16;101838.09;;;6.24;88.82
85317;BME280;75721;52.330;9.772;2024-02-28T11:06:56;101837.69;;;5.96;89.76
85317;BME280;75721;52.330;9.772;2024-02-28T11:09:25;101835.38;;;5.98;87.92
85317;BME280;75721;52.330;9.772;2024-02-28T11:11:53;101826.59;;;6.43;87.80
85317;BME280;75721;52.330;9.772;2024-02-28T11:14:21;101824.78;;;6.00;86.92
85317;BME280;75721;52.330;9.772;2024-02-28T11:17:05;101817.84;;;6.24;87.71
85317;BME280;75721;52.330;9.772;2024-02-28T11:19:32;101826.41;;;6.48;88.55
85317;BME280;75721;52.330;9.772;2024-02-28T11:21:59;101823.06;;;6.92;84.54
85317;BME280;75721;52.330;9.772;2024-02-28T11:24:29;101821.47;;;7.32;84.70
85317;BME280;75721;52.330;9.772;2024-02-28T11:26:56;101820.38;;;7.04;84.06
85317;BME280;75721;52.330;9.772;2024-02-28T11:29:26;101814.31;;;7.02;86.25
85317;BME280;75721;52.330;9.772;2024-02-28T11:31:52;101814.19;;;6.98;85.70
85317;BME280;75721;52.330;9.772;2024-02-28T11:34:21;101811.22;;;6.74;84.67
85317;BME280;75721;52.330;9.772;2024-02-28T11:36:52;101815.38;;;6.60;86.67
85317;BME280;75721;52.330;9.772;2024-02-28T11:39:18;101822.59;;;6.61;86.26
85317;BME280;75721;52.330;9.772;2024-02-28T11:41:46;101824.47;;;6.77;86.35
85317;BME280;75721;52.330;9.772;2024-02-28T11:44:16;101823.00;;;6.71;86.05
85317;BME280;75721;52.330;9.772;2024-02-28T11:46:45;101819.69;;;7.48;85.01
85317;BME280;75721;52.330;9.772;2024-02-28T11:49:14;101819.00;;;7.51;82.75
85317;BME280;75721;52.330;9.772;2024-02-28T11:51:44;101818.94;;;6.69;84.16
85317;BME280;75721;52.330;9.772;2024-02-28T11:54:11;101831.47;;;7.04;85.43
85317;BME280;75721;52.330;9.772;2024-02-28T11:56:37;101832.53;;;6.91;86.19
85317;BME280;75721;52.330;9.772;2024-02-28T11:59:03;101828.78;;;7.16;85.56
85317;BME280;75721;52.330;9.772;2024-02-28T12:01:43;101834.81;;;6.97;84.11
85317;BME280;75721;52.330;9.772;2024-02-28T12:04:09;101821.94;;;6.64;83.35
85317;BME280;75721;52.330;9.772;2024-02-28T12:06:36;101829.09;;;6.65;86.67
85317;BME280;75721;52.330;9.772;2024-02-28T12:09:14;101819.94;;;7.55;82.92
85317;BME280;75721;52.330;9.772;2024-02-28T12:11:40;101827.22;;;8.00;82.63
85317;BME280;75721;52.330;9.772;2024-02-28T12:14:09;101817.50;;;7.53;80.59
85317;BME280;75721;52.330;9.772;2024-02-28T12:16:38;101818.81;;;7.88;79.63
85317;BME280;75721;52.330;9.772;2024-02-28T12:19:08;101820.44;;;7.89;78.77
85317;BME280;75721;52.330;9.772;2024-02-28T12:21:36;101812.25;;;8.05;80.88
85317;BME280;75721;52.330;9.772;2024-02-28T12:24:01;101807.94;;;8.64;75.25
85317;BME280;75721;52.330;9.772;2024-02-28T12:26:27;101799.66;;;9.03;77.08
85317;BME280;75721;52.330;9.772;2024-02-28T12:28:53;101799.00;;;8.82;75.84
85317;BME280;75721;52.330;9.772;2024-02-28T12:31:18;101797.47;;;9.37;75.71
85317;BME280;75721;52.330;9.772;2024-02-28T12:33:44;101787.97;;;11.20;69.86
85317;BME280;75721;52.330;9.772;2024-02-28T12:36:09;101787.88;;;10.82;69.46
85317;BME280;75721;52.330;9.772;2024-02-28T12:38:35;101785.44;;;11.69;67.10
85317;BME280;75721;52.330;9.772;2024-02-28T12:41:01;101784.16;;;11.28;65.08
85317;BME280;75721;52.330;9.772;2024-02-28T12:43:27;101777.81;;;11.31;64.34
85317;BME280;75721;52.330;9.772;2024-02-28T12:45:54;101785.13;;;9.93;69.76
85317;BME280;75721;52.330;9.772;2024-02-28T12:48:19;101786.44;;;9.40;73.36